createdAt,value
2019-02-25T00:01:24.984Z,14.80
2019-02-25T00:03:54.706Z,12.37
2019-02-25T00:06:24.707Z,10.30
2019-02-25T00:08:54.552Z,13.73
2019-02-25T00:11:24.216Z,14.13
2019-02-25T00:13:54.125Z,11.67
2019-02-25T00:16:23.872Z,14.53
2019-02-25T00:18:53.758Z,11.68
2019-02-25T00:21:23.366Z,15.30
2019-02-25T00:23:53.517Z,14.00
2019-02-25T00:26:23.506Z,11.43
2019-02-25T00:28:53.238Z,13.93
2019-02-25T00:31:23.122Z,13.97
2019-02-25T00:33:52.758Z,12.43
2019-02-25T00:39:05.155Z,18.30
2019-02-25T00:41:36.132Z,14.87
2019-02-25T00:44:05.906Z,12.73
2019-02-25T00:46:35.632Z,14.53
2019-02-25T00:49:06.038Z,15.57
2019-02-25T00:51:36.374Z,12.13
2019-02-25T00:54:06.071Z,12.23
2019-02-25T00:56:36.003Z,11.50
2019-02-25T00:59:05.946Z,14.03
2019-02-25T01:01:35.542Z,14.10
2019-02-25T01:04:07.083Z,18.40
2019-02-25T01:06:36.768Z,12.63
2019-02-25T01:09:08.100Z,13.43
2019-02-25T01:11:38.488Z,13.07
2019-02-25T01:14:08.703Z,15.77
2019-02-25T01:16:38.989Z,16.63
2019-02-25T01:19:08.920Z,9.47
2019-02-25T01:21:39.807Z,11.45
2019-02-25T01:24:09.682Z,10.37
2019-02-25T01:26:39.352Z,11.33
2019-02-25T01:29:08.978Z,13.10
2019-02-25T01:31:39.129Z,12.63
2019-02-25T01:34:08.801Z,12.90
2019-02-25T01:36:38.648Z,14.47
2019-02-25T01:39:09.080Z,15.50
2019-02-25T01:41:38.947Z,14.13
2019-02-25T01:44:08.572Z,11.63
2019-02-25T01:46:38.427Z,13.37
2019-02-25T01:49:08.532Z,19.60
2019-02-25T01:51:38.399Z,13.27
2019-02-25T01:54:08.270Z,15.30
2019-02-25T01:56:38.103Z,11.30
2019-02-25T01:59:08.563Z,13.03
2019-02-25T02:01:38.174Z,16.00
2019-02-25T02:04:08.049Z,11.07
2019-02-25T02:06:37.917Z,12.77
2019-02-25T02:09:08.395Z,10.60
2019-02-25T02:11:38.756Z,10.50
2019-02-25T02:14:10.689Z,11.50
2019-02-25T02:16:40.390Z,12.10
2019-02-25T02:19:10.431Z,10.83
2019-02-25T02:21:40.822Z,9.73
2019-02-25T02:24:14.362Z,10.87
2019-02-25T02:26:44.798Z,10.73
2019-02-25T02:29:15.722Z,13.00
2019-02-25T02:31:45.425Z,11.03
2019-02-25T02:34:15.848Z,9.03
2019-02-25T02:36:46.386Z,10.10
2019-02-25T02:39:16.754Z,12.00
2019-02-25T02:42:20.887Z,9.57
2019-02-25T02:45:38.410Z,12.00
2019-02-25T02:48:11.838Z,11.60
2019-02-25T02:50:41.967Z,11.23
2019-02-25T02:53:11.951Z,11.07
2019-02-25T02:55:41.870Z,13.57
2019-02-25T02:58:11.780Z,14.77
2019-02-25T03:00:41.535Z,11.77
2019-02-25T03:03:11.262Z,11.70
2019-02-25T03:05:40.988Z,9.57
2019-02-25T03:08:10.677Z,13.13
2019-02-25T03:10:40.945Z,14.13
2019-02-25T03:13:10.992Z,9.73
2019-02-25T03:15:42.206Z,11.10
2019-02-25T03:18:11.959Z,12.07
2019-02-25T03:20:42.013Z,12.55
2019-02-25T03:23:11.747Z,8.93
2019-02-25T03:25:42.721Z,13.17
2019-02-25T03:28:12.988Z,8.87
2019-02-25T03:30:42.933Z,12.60
2019-02-25T03:33:12.937Z,13.17
2019-02-25T03:35:42.816Z,11.17
2019-02-25T03:38:12.516Z,8.63
2019-02-25T03:40:42.797Z,14.87
2019-02-25T03:43:12.540Z,9.33
2019-02-25T03:45:42.682Z,14.60
2019-02-25T03:48:12.623Z,9.60
2019-02-25T03:50:42.517Z,9.07
2019-02-25T03:53:12.486Z,14.07
2019-02-25T03:55:42.424Z,15.47
2019-02-25T03:58:12.472Z,13.77
2019-02-25T04:00:42.361Z,9.97
2019-02-25T04:03:12.257Z,8.03
2019-02-25T04:05:41.972Z,14.47
2019-02-25T04:08:11.802Z,11.27
2019-02-25T04:10:41.533Z,12.43
2019-02-25T04:13:11.501Z,11.83
2019-02-25T04:15:43.375Z,10.10
2019-02-25T04:18:13.077Z,12.53
2019-02-25T04:20:42.732Z,11.73
2019-02-25T04:23:12.339Z,12.83
2019-02-25T04:25:42.069Z,10.60
2019-02-25T04:28:11.686Z,13.97
2019-02-25T04:30:41.354Z,13.27
2019-02-25T04:33:11.000Z,10.33
2019-02-25T04:35:40.910Z,12.03
2019-02-25T04:38:13.303Z,8.70
2019-02-25T04:40:43.312Z,8.07
2019-02-25T04:43:14.349Z,12.20
2019-02-25T04:45:43.975Z,11.83
2019-02-25T04:48:13.759Z,10.03
2019-02-25T04:50:43.447Z,9.40
2019-02-25T04:53:13.075Z,10.37
2019-02-25T04:55:42.831Z,10.30
2019-02-25T04:58:12.480Z,9.67
2019-02-25T05:00:42.109Z,10.97
2019-02-25T05:03:12.086Z,9.60
2019-02-25T05:05:41.728Z,10.50
2019-02-25T05:08:11.600Z,12.33
2019-02-25T05:10:41.293Z,9.30
2019-02-25T05:13:10.975Z,9.10
2019-02-25T05:15:40.957Z,12.30
2019-02-25T05:18:10.909Z,9.47
2019-02-25T05:20:40.820Z,10.27
2019-02-25T05:23:10.538Z,9.67
2019-02-25T05:25:40.541Z,11.97
2019-02-25T05:28:10.428Z,10.67
2019-02-25T05:30:40.050Z,14.17
2019-02-25T05:33:09.842Z,15.90
2019-02-25T05:35:39.472Z,10.53
2019-02-25T05:38:10.038Z,10.73
2019-02-25T05:40:39.678Z,11.53
2019-02-25T05:43:09.412Z,11.30
2019-02-25T05:45:40.003Z,8.97
2019-02-25T05:48:09.695Z,8.83
2019-02-25T05:50:39.348Z,7.93
2019-02-25T05:53:09.049Z,14.07
2019-02-25T05:55:38.923Z,13.50
2019-02-25T05:58:08.570Z,10.37
2019-02-25T06:00:38.220Z,8.90
2019-02-25T06:03:08.095Z,9.53
2019-02-25T06:05:37.722Z,8.95
2019-02-25T06:08:07.661Z,13.90
2019-02-25T06:10:37.291Z,9.65
2019-02-25T06:13:06.930Z,11.13
2019-02-25T06:15:36.592Z,12.27
2019-02-25T06:18:06.515Z,12.17
2019-02-25T06:20:36.252Z,14.93
2019-02-25T06:23:05.881Z,17.10
2019-02-25T06:25:35.561Z,11.40
2019-02-25T06:28:05.312Z,11.97
2019-02-25T06:30:35.194Z,14.13
2019-02-25T06:33:04.954Z,19.60
2019-02-25T06:35:34.797Z,11.13
2019-02-25T06:38:05.081Z,12.67
2019-02-25T06:40:34.813Z,11.20
2019-02-25T06:43:05.379Z,9.87
2019-02-25T06:45:35.126Z,13.08
2019-02-25T06:48:05.168Z,11.33
2019-02-25T06:50:35.164Z,22.97
2019-02-25T06:53:05.045Z,29.53
2019-02-25T06:55:35.150Z,18.63
2019-02-25T06:58:05.755Z,16.07
2019-02-25T07:00:35.605Z,13.03
2019-02-25T07:03:05.327Z,14.80
2019-02-25T07:05:54.227Z,11.50
2019-02-25T07:08:40.879Z,20.53
2019-02-25T07:11:35.748Z,12.60
2019-02-25T07:14:19.189Z,12.80
2019-02-25T07:17:07.866Z,11.00
2019-02-25T07:20:11.927Z,10.50
2019-02-25T07:22:46.799Z,14.67
2019-02-25T07:25:38.149Z,11.50
2019-02-25T07:28:25.907Z,8.33
2019-02-25T07:31:11.584Z,14.77
2019-02-25T07:33:54.470Z,17.57
2019-02-25T07:36:32.871Z,12.90
2019-02-25T07:39:33.674Z,15.27
2019-02-25T07:42:31.541Z,9.00
2019-02-25T07:45:07.716Z,12.90
2019-02-25T07:47:57.435Z,13.03
2019-02-25T07:50:36.374Z,13.77
2019-02-25T07:53:14.574Z,13.13
2019-02-25T07:56:05.624Z,12.30
2019-02-25T07:58:48.258Z,18.48
2019-02-25T08:01:25.785Z,15.93
2019-02-25T08:04:12.357Z,10.87
2019-02-25T08:06:58.521Z,13.23
2019-02-25T08:09:57.888Z,13.77
2019-02-25T08:12:39.901Z,15.17
2019-02-25T08:15:19.973Z,13.77
2019-02-25T08:18:11.523Z,13.53
2019-02-25T08:20:59.142Z,10.87
2019-02-25T08:23:36.717Z,12.53
2019-02-25T08:26:24.750Z,14.17
2019-02-25T08:29:14.074Z,12.53
2019-02-25T08:31:51.532Z,8.83
2019-02-25T08:34:52.149Z,10.27
2019-02-25T08:37:45.011Z,10.63
2019-02-25T08:40:41.051Z,9.60
2019-02-25T08:43:22.509Z,10.30
2019-02-25T08:45:57.816Z,10.80
2019-02-25T08:48:34.839Z,13.97
2019-02-25T08:51:04.674Z,10.63
2019-02-25T08:53:34.341Z,10.43
2019-02-25T08:56:03.955Z,10.17
2019-02-25T08:58:33.662Z,15.00
2019-02-25T09:01:03.484Z,15.45
2019-02-25T09:03:33.099Z,14.40
2019-02-25T09:06:02.950Z,14.07
2019-02-25T09:08:32.654Z,13.20
2019-02-25T09:11:02.276Z,13.32
2019-02-25T09:13:32.185Z,14.83
2019-02-25T09:16:02.123Z,14.20
2019-02-25T09:18:34.118Z,12.03
2019-02-25T09:21:03.846Z,14.63
2019-02-25T09:23:34.001Z,12.05
2019-02-25T09:26:03.932Z,14.13
2019-02-25T09:28:33.843Z,18.45
2019-02-25T09:31:05.689Z,11.50
2019-02-25T09:33:35.488Z,18.20
2019-02-25T09:36:05.226Z,16.47
2019-02-25T09:38:34.877Z,11.65
2019-02-25T09:41:04.654Z,12.63
2019-02-25T09:43:34.380Z,10.15
2019-02-25T09:46:05.752Z,13.70
2019-02-25T09:48:35.770Z,13.30
2019-02-25T09:51:05.416Z,11.67
2019-02-25T09:53:35.324Z,11.53
2019-02-25T09:56:05.239Z,15.77
2019-02-25T09:58:34.913Z,11.40
2019-02-25T10:01:05.733Z,14.65
2019-02-25T10:03:35.658Z,16.32
2019-02-25T10:06:05.426Z,14.37
2019-02-25T10:08:35.130Z,20.13
2019-02-25T10:11:04.868Z,14.47
2019-02-25T10:13:35.193Z,18.82
2019-02-25T10:16:04.945Z,16.20
2019-02-25T10:18:34.853Z,15.57
2019-02-25T10:21:04.503Z,12.73
2019-02-25T10:23:34.507Z,12.00
2019-02-25T10:26:04.228Z,14.80
2019-02-25T10:28:34.253Z,13.10
2019-02-25T10:31:03.982Z,11.67
2019-02-25T10:33:33.825Z,18.37
2019-02-25T10:36:03.527Z,14.73
2019-02-25T10:38:33.458Z,11.57
2019-02-25T10:41:03.558Z,13.50
2019-02-25T10:43:34.597Z,15.68
2019-02-25T10:46:06.958Z,15.13
2019-02-25T10:48:37.498Z,14.00
2019-02-25T10:51:09.247Z,13.90
2019-02-25T10:53:39.017Z,16.93
2019-02-25T10:56:17.331Z,17.40
2019-02-25T10:58:48.011Z,13.83
2019-02-25T11:01:19.893Z,18.70
2019-02-25T11:03:54.313Z,15.10
2019-02-25T11:06:25.207Z,13.63
2019-02-25T11:09:15.767Z,14.77
2019-02-25T11:11:48.426Z,13.47
2019-02-25T11:14:18.101Z,15.83
2019-02-25T11:16:48.524Z,15.77
2019-02-25T11:19:19.132Z,19.73
2019-02-25T11:21:49.058Z,16.85
2019-02-25T11:24:20.718Z,19.05
2019-02-25T11:26:50.312Z,24.13
2019-02-25T11:29:20.528Z,20.17
2019-02-25T11:31:51.598Z,17.40
2019-02-25T11:34:21.689Z,14.50
2019-02-25T11:36:54.693Z,13.13
2019-02-25T11:39:27.463Z,19.33
2019-02-25T11:41:57.134Z,15.23
2019-02-25T11:44:31.258Z,15.47
2019-02-25T11:47:02.324Z,17.13
2019-02-25T11:49:32.238Z,19.90
2019-02-25T11:52:01.893Z,14.33
2019-02-25T11:54:31.517Z,15.90
2019-02-25T11:57:01.243Z,13.90
2019-02-25T11:59:30.886Z,11.67
2019-02-25T12:02:01.622Z,13.20
2019-02-25T12:04:31.838Z,12.27
2019-02-25T12:07:01.529Z,12.73
2019-02-25T12:09:31.413Z,15.00
2019-02-25T12:12:01.268Z,13.03
2019-02-25T12:14:30.978Z,15.43
2019-02-25T12:17:00.958Z,14.60
2019-02-25T12:19:30.908Z,15.57
2019-02-25T12:22:00.525Z,19.40
2019-02-25T12:24:30.238Z,14.97
2019-02-25T12:26:59.853Z,15.30
2019-02-25T12:29:29.575Z,15.93
2019-02-25T12:31:59.282Z,15.10
2019-02-25T12:34:28.937Z,15.00
2019-02-25T12:36:58.862Z,13.63
2019-02-25T12:39:28.614Z,14.23
2019-02-25T12:41:59.010Z,13.27
2019-02-25T12:44:28.995Z,14.57
2019-02-25T12:46:58.869Z,14.60
2019-02-25T12:49:28.860Z,16.37
2019-02-25T12:51:58.566Z,11.87
2019-02-25T12:54:28.796Z,13.30
2019-02-25T12:56:58.450Z,12.90
2019-02-25T12:59:28.096Z,15.07
2019-02-25T13:01:58.030Z,11.43
2019-02-25T13:04:27.702Z,16.13
2019-02-25T13:06:57.590Z,18.10
2019-02-25T13:09:30.166Z,24.83
2019-02-25T13:12:00.141Z,17.73
2019-02-25T13:14:30.302Z,20.93
2019-02-25T13:16:59.916Z,12.33
2019-02-25T13:19:29.560Z,14.47
2019-02-25T13:21:59.826Z,19.37
2019-02-25T13:24:30.837Z,13.63
2019-02-25T13:27:03.185Z,13.77
2019-02-25T13:29:33.260Z,14.87
2019-02-25T13:32:02.898Z,16.67
2019-02-25T13:34:32.541Z,16.33
2019-02-25T13:37:02.325Z,16.53
2019-02-25T13:39:32.031Z,16.33
2019-02-25T13:42:01.715Z,15.83
2019-02-25T13:44:31.723Z,19.90
2019-02-25T13:47:01.521Z,15.87
2019-02-25T13:49:31.210Z,13.63
2019-02-25T13:52:01.334Z,12.93
2019-02-25T13:54:31.984Z,12.90
2019-02-25T13:57:01.784Z,14.33
2019-02-25T13:59:31.439Z,12.60
2019-02-25T14:02:01.109Z,14.67
2019-02-25T14:04:30.795Z,14.13
2019-02-25T14:07:00.951Z,14.90
2019-02-25T14:09:30.634Z,14.53
2019-02-25T14:12:00.382Z,16.27
2019-02-25T14:14:30.263Z,14.83
2019-02-25T14:16:59.959Z,19.63
2019-02-25T14:19:29.654Z,15.33
2019-02-25T14:21:59.400Z,18.03
2019-02-25T14:24:29.848Z,18.00
2019-02-25T14:27:00.254Z,14.97
2019-02-25T14:29:30.677Z,13.67
2019-02-25T14:32:00.334Z,13.43
2019-02-25T14:34:32.335Z,16.03
2019-02-25T14:37:04.645Z,16.70
2019-02-25T14:39:36.029Z,15.73
2019-02-25T14:42:06.801Z,16.67
2019-02-25T14:44:38.107Z,13.73
2019-02-25T14:47:19.582Z,12.87
2019-02-25T14:49:42.933Z,13.83
2019-02-25T14:52:12.442Z,14.73
2019-02-25T14:54:42.054Z,18.67
2019-02-25T14:57:11.939Z,18.50
2019-02-25T14:59:42.058Z,17.37
2019-02-25T15:02:11.868Z,15.00
2019-02-25T15:04:42.224Z,12.87
2019-02-25T15:07:15.129Z,16.33
2019-02-25T15:09:45.765Z,18.87
2019-02-25T15:12:15.612Z,16.37
2019-02-25T15:14:45.831Z,16.10
2019-02-25T15:17:15.522Z,19.17
2019-02-25T15:19:45.281Z,14.37
2019-02-25T15:22:14.997Z,18.52
2019-02-25T15:24:47.927Z,13.72
2019-02-25T15:27:15.995Z,11.78
2019-02-25T15:29:46.809Z,16.27
2019-02-25T15:32:17.694Z,15.23
2019-02-25T15:34:48.571Z,16.67
2019-02-25T15:37:18.973Z,14.25
2019-02-25T15:39:48.861Z,17.92
2019-02-25T15:42:18.829Z,18.35
2019-02-25T15:44:51.219Z,13.58
2019-02-25T15:47:20.807Z,14.78
2019-02-25T15:49:50.594Z,15.88
2019-02-25T15:52:21.062Z,28.80
2019-02-25T15:54:51.868Z,18.30
2019-02-25T15:57:22.542Z,17.73
2019-02-25T15:59:54.175Z,12.98
2019-02-25T16:02:23.828Z,14.80
2019-02-25T16:04:54.055Z,18.43
2019-02-25T16:07:25.882Z,19.30
2019-02-25T16:09:57.117Z,16.70
2019-02-25T16:12:27.538Z,15.95
2019-02-25T16:14:58.609Z,20.60
2019-02-25T16:17:28.377Z,18.73
2019-02-25T16:19:58.276Z,17.63
2019-02-25T16:22:29.914Z,22.40
2019-02-25T16:25:00.625Z,25.00
2019-02-25T16:27:32.938Z,16.80
2019-02-25T16:30:03.651Z,23.60
2019-02-25T16:32:35.067Z,24.57
2019-02-25T16:35:07.172Z,18.63
2019-02-25T16:37:36.713Z,18.77
2019-02-25T16:40:10.134Z,20.70
2019-02-25T16:42:41.281Z,18.60
2019-02-25T16:45:14.196Z,14.30
2019-02-25T16:47:45.236Z,20.48
2019-02-25T16:50:16.487Z,21.27
2019-02-25T16:52:49.370Z,16.67
2019-02-25T16:55:20.613Z,17.57
2019-02-25T16:57:51.570Z,20.23
2019-02-25T17:00:24.816Z,21.50
2019-02-25T17:02:53.392Z,20.00
2019-02-25T17:05:23.556Z,23.40
2019-02-25T17:07:55.970Z,20.30
2019-02-25T17:10:27.115Z,20.33
2019-02-25T17:12:56.900Z,36.23
2019-02-25T17:15:27.365Z,23.70
2019-02-25T17:17:59.633Z,21.93
2019-02-25T17:20:28.894Z,27.37
2019-02-25T17:22:59.738Z,22.63
2019-02-25T17:25:31.612Z,19.63
2019-02-25T17:28:01.127Z,20.47
2019-02-25T17:30:31.117Z,19.90
2019-02-25T17:33:01.596Z,22.53
2019-02-25T17:35:32.485Z,29.13
2019-02-25T17:38:03.585Z,25.63
2019-02-25T17:40:33.528Z,24.40
2019-02-25T17:43:03.365Z,25.60
2019-02-25T17:45:34.475Z,24.23
2019-02-25T17:48:08.104Z,34.23
2019-02-25T17:50:39.116Z,22.83
2019-02-25T17:53:09.742Z,32.43
2019-02-25T17:55:39.948Z,29.90
2019-02-25T17:58:10.048Z,40.67
2019-02-25T18:00:42.441Z,33.37
2019-02-25T18:03:17.199Z,32.33
2019-02-25T18:05:47.325Z,35.00
2019-02-25T18:08:17.048Z,31.07
2019-02-25T18:10:47.486Z,36.37
2019-02-25T18:13:19.587Z,36.20
2019-02-25T18:15:51.487Z,41.43
2019-02-25T18:18:24.387Z,34.60
2019-02-25T18:20:54.083Z,29.60
2019-02-25T18:23:24.011Z,37.87
2019-02-25T18:25:58.097Z,29.90
2019-02-25T18:28:25.290Z,28.20
2019-02-25T18:30:55.198Z,30.20
2019-02-25T18:33:26.869Z,31.27
2019-02-25T18:35:59.785Z,27.00
2019-02-25T18:38:30.101Z,30.73
2019-02-25T18:41:02.413Z,23.60
2019-02-25T18:43:32.692Z,24.87
2019-02-25T18:46:04.824Z,22.43
2019-02-25T18:48:34.124Z,25.67
2019-02-25T18:51:05.961Z,24.57
2019-02-25T18:53:35.942Z,24.70
2019-02-25T18:56:06.078Z,26.50
2019-02-25T18:58:37.543Z,25.03
2019-02-25T19:01:09.705Z,26.83
2019-02-25T19:03:40.335Z,22.77
2019-02-25T19:06:10.436Z,29.63
2019-02-25T19:08:43.263Z,23.07
2019-02-25T19:11:13.288Z,26.17
2019-02-25T19:13:45.816Z,29.23
2019-02-25T19:16:16.349Z,23.20
2019-02-25T19:18:47.741Z,25.87
2019-02-25T19:21:18.887Z,23.97
2019-02-25T19:23:48.805Z,22.00
2019-02-25T19:26:19.637Z,24.77
2019-02-25T19:28:52.056Z,25.30
2019-02-25T19:31:21.440Z,25.23
2019-02-25T19:33:52.354Z,22.73
2019-02-25T19:36:25.695Z,24.10
2019-02-25T19:38:54.173Z,24.67
2019-02-25T19:41:25.889Z,23.90
2019-02-25T19:43:59.202Z,20.07
2019-02-25T19:46:27.209Z,26.33
2019-02-25T19:48:57.389Z,21.97
2019-02-25T19:51:28.041Z,29.87
2019-02-25T19:53:59.810Z,28.13
2019-02-25T19:56:30.555Z,27.60
2019-02-25T19:59:03.740Z,21.50
2019-02-25T20:01:32.967Z,24.77
2019-02-25T20:04:06.421Z,25.13
2019-02-25T20:06:34.088Z,24.63
2019-02-25T20:09:07.407Z,25.03
2019-02-25T20:11:38.287Z,28.63
2019-02-25T20:14:10.886Z,28.10
2019-02-25T20:16:40.776Z,22.98
2019-02-25T20:19:10.513Z,27.77
2019-02-25T20:21:40.335Z,23.60
2019-02-25T20:24:14.380Z,21.27
2019-02-25T20:26:41.858Z,25.43
2019-02-25T20:29:12.750Z,24.57
2019-02-25T20:31:43.247Z,24.87
2019-02-25T20:34:18.509Z,23.30
2019-02-25T20:36:48.330Z,21.75
2019-02-25T20:39:18.991Z,30.43
2019-02-25T20:41:50.725Z,31.07
2019-02-25T20:44:23.939Z,21.63
2019-02-25T20:46:55.076Z,22.63
2019-02-25T20:49:29.318Z,21.37
2019-02-25T20:52:00.922Z,21.77
2019-02-25T20:54:28.720Z,20.82
2019-02-25T20:56:59.553Z,82.27
2019-02-25T20:59:30.897Z,29.55
2019-02-25T21:02:00.953Z,29.60
2019-02-25T21:04:30.736Z,28.23
2019-02-25T21:07:02.261Z,25.13
2019-02-25T21:09:33.662Z,23.63
2019-02-25T21:12:04.169Z,24.93
2019-02-25T21:14:35.580Z,25.23
2019-02-25T21:17:06.240Z,25.13
2019-02-25T21:19:37.805Z,26.00
2019-02-25T21:22:08.763Z,22.00
2019-02-25T21:24:38.904Z,26.73
2019-02-25T21:27:10.416Z,24.43
2019-02-25T21:29:41.286Z,27.67
2019-02-25T21:32:15.081Z,31.73
2019-02-25T21:34:46.184Z,29.70
2019-02-25T21:37:14.802Z,28.42
2019-02-25T21:39:44.488Z,26.40
2019-02-25T21:42:17.062Z,27.13
2019-02-25T21:44:48.315Z,29.45
2019-02-25T21:47:20.167Z,28.23
2019-02-25T21:49:49.968Z,23.60
2019-02-25T21:52:20.001Z,25.33
2019-02-25T21:54:49.783Z,24.13
2019-02-25T21:57:19.450Z,28.50
2019-02-25T21:59:49.386Z,24.60
2019-02-25T22:02:19.260Z,26.17
2019-02-25T22:04:50.164Z,29.73
2019-02-25T22:07:24.379Z,20.67
2019-02-25T22:09:52.062Z,24.07
2019-02-25T22:12:21.794Z,29.43
2019-02-25T22:14:52.190Z,29.83
2019-02-25T22:17:22.999Z,22.17
2019-02-25T22:19:53.561Z,20.97
2019-02-25T22:22:26.211Z,24.37
2019-02-25T22:24:54.882Z,22.83
2019-02-25T22:27:24.504Z,29.13
2019-02-25T22:29:54.453Z,24.37
2019-02-25T22:32:24.374Z,23.80
2019-02-25T22:34:56.045Z,21.97
2019-02-25T22:37:26.874Z,22.93
2019-02-25T22:39:57.136Z,25.00
2019-02-25T22:42:27.429Z,29.60
2019-02-25T22:44:58.574Z,27.10
2019-02-25T22:47:28.422Z,20.93
2019-02-25T22:49:58.184Z,23.07
2019-02-25T22:52:29.263Z,25.60
2019-02-25T22:54:59.675Z,23.20
2019-02-25T22:57:29.662Z,24.07
2019-02-25T22:59:59.526Z,22.43
2019-02-25T23:02:29.627Z,26.27
2019-02-25T23:04:59.695Z,24.40
2019-02-25T23:07:29.357Z,23.23
2019-02-25T23:09:59.269Z,28.00
2019-02-25T23:12:31.091Z,21.07
2019-02-25T23:15:03.153Z,20.60
2019-02-25T23:17:35.696Z,21.70
2019-02-25T23:20:09.351Z,20.80
2019-02-25T23:22:39.130Z,25.13
2019-02-25T23:25:08.878Z,19.90
2019-02-25T23:27:39.296Z,21.97
2019-02-25T23:30:09.416Z,21.33
2019-02-25T23:32:39.573Z,23.20
2019-02-25T23:35:13.379Z,15.47
2019-02-25T23:37:40.884Z,18.83
2019-02-25T23:40:12.522Z,23.62
2019-02-25T23:42:44.138Z,22.93
2019-02-25T23:45:15.452Z,21.23
2019-02-25T23:47:47.285Z,21.02
2019-02-25T23:50:16.969Z,26.13
2019-02-25T23:52:46.584Z,22.90
2019-02-25T23:55:18.930Z,18.95
2019-02-25T23:57:48.952Z,23.23
